createdAt,value
2023-05-17T05:02:54.279Z,10.10
2023-05-17T05:07:58.847Z,10.00
2023-05-17T05:13:03.546Z,10.10
2023-05-17T05:18:08.882Z,10.10
2023-05-17T05:23:13.107Z,10.20
2023-05-17T05:28:18.350Z,10.20
2023-05-17T05:33:23.505Z,10.30
2023-05-17T05:38:27.288Z,10.40
2023-05-17T05:43:31.493Z,10.50
2023-05-17T05:48:39.533Z,10.60
2023-05-17T05:53:43.493Z,10.70
2023-05-17T05:58:47.122Z,10.90
2023-05-17T06:03:52.484Z,10.90
2023-05-17T06:08:58.155Z,11.10
2023-05-17T06:14:03.099Z,11.20
2023-05-17T06:19:08.180Z,11.30
2023-05-17T06:24:11.835Z,11.50
2023-05-17T06:29:15.428Z,11.60
2023-05-17T06:34:20.364Z,11.70
2023-05-17T06:39:23.976Z,11.90
2023-05-17T06:44:27.586Z,12.00
2023-05-17T06:49:32.588Z,12.10
2023-05-17T06:54:36.293Z,12.30
2023-05-17T06:59:39.977Z,12.50
2023-05-17T07:04:45.029Z,12.70
2023-05-17T07:09:48.842Z,12.80
2023-05-17T07:14:52.435Z,13.00
2023-05-17T07:20:00.265Z,13.30
2023-05-17T07:25:05.269Z,13.40
2023-05-17T07:30:09.901Z,13.60
2023-05-17T07:35:14.687Z,13.80
2023-05-17T07:40:18.548Z,14.00
2023-05-17T07:45:22.374Z,14.30
2023-05-17T07:50:27.902Z,14.50
2023-05-17T07:55:31.582Z,14.60
2023-05-17T08:00:35.254Z,14.90
2023-05-17T08:05:40.286Z,15.20
2023-05-17T08:10:44.019Z,15.50
2023-05-17T08:15:48.842Z,15.80
2023-05-17T08:20:55.031Z,16.20
2023-05-17T08:25:58.687Z,16.50
2023-05-17T08:31:02.337Z,17.00
2023-05-17T08:36:08.790Z,17.40
2023-05-17T08:41:12.449Z,17.90
2023-05-17T08:46:16.945Z,18.40
2023-05-17T08:51:21.895Z,19.00
2023-05-17T08:56:28.513Z,19.70
2023-05-17T09:01:33.356Z,20.40
2023-05-17T09:06:38.659Z,21.20
2023-05-17T09:11:42.308Z,21.90
2023-05-17T09:16:45.994Z,22.50
2023-05-17T09:21:51.244Z,23.10
2023-05-17T09:26:54.846Z,23.70
2023-05-17T09:31:58.564Z,24.40
2023-05-17T09:37:04.338Z,24.70
2023-05-17T09:42:08.820Z,24.80
2023-05-17T09:47:12.425Z,24.90
2023-05-17T09:52:21.189Z,25.20
2023-05-17T09:57:26.302Z,25.60
2023-05-17T10:02:33.777Z,25.80
2023-05-17T10:07:39.551Z,25.60
2023-05-17T10:12:44.307Z,25.40
2023-05-17T10:17:48.337Z,24.90
2023-05-17T10:22:53.899Z,24.50
2023-05-17T10:27:58.360Z,24.30
2023-05-17T10:33:02.502Z,24.00
2023-05-17T10:38:07.520Z,24.00
2023-05-17T10:43:11.528Z,24.20
2023-05-17T10:48:17.454Z,24.50
2023-05-17T10:53:22.799Z,24.60
2023-05-17T10:58:29.756Z,24.70
2023-05-17T11:03:34.615Z,24.50
2023-05-17T11:08:47.459Z,25.10
2023-05-17T11:13:55.894Z,25.90
2023-05-17T11:19:08.600Z,26.40
2023-05-17T11:24:22.323Z,27.30
2023-05-17T11:29:30.597Z,27.80
2023-05-17T11:34:35.410Z,28.20
2023-05-17T11:40:05.153Z,28.50
2023-05-17T11:45:09.773Z,29.00
2023-05-17T11:50:14.717Z,28.80
2023-05-17T11:55:20.006Z,28.70
2023-05-17T12:00:28.491Z,29.10
2023-05-17T12:05:32.393Z,29.40
2023-05-17T12:10:37.400Z,29.70
2023-05-17T12:15:42.484Z,30.00
2023-05-17T12:20:59.447Z,30.00
2023-05-17T12:26:09.396Z,30.00
2023-05-17T12:31:15.886Z,29.60
2023-05-17T12:36:19.988Z,29.60
2023-05-17T12:41:26.499Z,29.80
2023-05-17T12:46:30.563Z,29.90
2023-05-17T12:51:41.319Z,29.80
2023-05-17T12:56:46.569Z,30.00
2023-05-17T13:01:51.594Z,29.50
2023-05-17T13:06:59.364Z,29.30
2023-05-17T13:12:07.902Z,28.90
2023-05-17T13:17:12.915Z,28.20
2023-05-17T13:22:16.718Z,27.50
2023-05-17T13:27:21.720Z,27.60
2023-05-17T13:32:26.142Z,27.90
2023-05-17T13:37:29.870Z,28.20
2023-05-17T13:42:34.821Z,27.80
2023-05-17T13:47:38.681Z,27.60
2023-05-17T13:52:42.455Z,27.60
2023-05-17T13:57:47.495Z,28.00
2023-05-17T14:02:51.257Z,28.10
2023-05-17T14:07:54.923Z,27.60
2023-05-17T14:12:59.856Z,27.20
2023-05-17T14:18:03.560Z,27.00
2023-05-17T14:23:07.221Z,26.50
2023-05-17T14:28:13.665Z,25.70
2023-05-17T14:33:18.294Z,25.40
2023-05-17T14:38:23.186Z,25.50
2023-05-17T14:43:28.414Z,25.40
2023-05-17T14:48:33.029Z,25.10
2023-05-17T14:53:36.677Z,24.60
2023-05-17T14:58:42.127Z,24.10
2023-05-17T15:03:46.253Z,23.80
2023-05-17T15:08:49.848Z,23.60
2023-05-17T15:13:54.953Z,23.40
2023-05-17T15:18:59.267Z,23.10
2023-05-17T15:24:02.776Z,22.80
2023-05-17T15:29:07.795Z,22.60
2023-05-17T15:34:11.486Z,22.50
2023-05-17T15:39:15.244Z,22.50
2023-05-17T15:44:20.338Z,22.30
2023-05-17T15:49:23.973Z,22.10
2023-05-17T15:54:27.627Z,22.00
2023-05-17T15:59:32.800Z,22.00
2023-05-17T16:04:36.641Z,21.90
2023-05-17T16:09:40.536Z,21.90
2023-05-17T16:14:45.996Z,21.80
2023-05-17T16:19:49.679Z,21.70
2023-05-17T16:24:54.212Z,21.50
2023-05-17T16:29:58.987Z,21.30
2023-05-17T16:35:03.261Z,21.20
2023-05-17T16:40:08.114Z,21.20
2023-05-17T16:45:13.415Z,21.30
2023-05-17T16:50:17.209Z,21.20
2023-05-17T16:55:20.834Z,21.20
2023-05-17T17:00:26.055Z,21.00
2023-05-17T17:05:29.821Z,20.80
2023-05-17T17:10:39.166Z,20.50
2023-05-17T17:15:44.366Z,20.40
2023-05-17T17:20:48.132Z,20.30
2023-05-17T17:25:51.837Z,20.20
2023-05-17T17:30:56.879Z,20.20
2023-05-17T17:36:00.495Z,20.10
2023-05-17T17:41:04.141Z,20.00
2023-05-17T17:46:09.161Z,19.90
2023-05-17T17:51:12.836Z,19.70
2023-05-17T17:56:16.687Z,19.60
2023-05-17T18:01:21.778Z,19.40
2023-05-17T18:06:25.574Z,19.30
2023-05-17T18:11:29.174Z,19.20
2023-05-17T18:16:34.179Z,19.10
2023-05-17T18:21:37.913Z,19.10
2023-05-17T18:26:41.567Z,19.10
2023-05-17T18:31:47.532Z,19.20
2023-05-17T18:36:51.303Z,19.20
2023-05-17T18:41:55.260Z,19.10
2023-05-17T18:47:00.270Z,19.20
2023-05-17T18:52:03.951Z,19.10
2023-05-17T18:57:11.361Z,19.10
2023-05-17T19:02:16.362Z,19.10
2023-05-17T19:07:20.035Z,19.00
2023-05-17T19:12:23.683Z,19.00
2023-05-17T19:17:28.813Z,18.90
2023-05-17T19:22:32.534Z,18.80
2023-05-17T19:27:36.159Z,18.60
2023-05-17T19:32:41.095Z,18.50
2023-05-17T19:37:44.892Z,18.40
2023-05-17T19:42:48.561Z,18.30
2023-05-17T19:47:54.133Z,18.10
2023-05-17T19:52:57.966Z,18.00
2023-05-17T19:58:02.981Z,17.80
2023-05-17T20:03:08.174Z,17.70
2023-05-17T20:08:11.941Z,17.60
2023-05-17T20:13:15.673Z,17.50
2023-05-17T20:18:20.985Z,17.30
2023-05-17T20:23:24.690Z,17.30
2023-05-17T20:28:28.489Z,17.10
2023-05-17T20:33:33.540Z,17.00
2023-05-17T20:38:37.186Z,16.90
2023-05-17T20:43:40.737Z,16.80
2023-05-17T20:48:47.890Z,16.70
2023-05-17T20:53:51.586Z,16.50
2023-05-17T20:58:55.312Z,16.50
2023-05-17T21:04:00.833Z,16.30
2023-05-17T21:09:04.685Z,16.30
2023-05-17T21:14:08.327Z,16.20
2023-05-17T21:19:14.503Z,16.10
2023-05-17T21:24:18.191Z,16.00
2023-05-17T21:29:21.995Z,15.80
2023-05-17T21:34:26.994Z,15.70
2023-05-17T21:39:30.687Z,15.60
2023-05-17T21:44:34.456Z,15.50
2023-05-17T21:49:39.504Z,15.30
2023-05-17T21:54:43.151Z,15.20
2023-05-17T21:59:46.923Z,15.10
2023-05-17T22:04:52.026Z,15.00
2023-05-17T22:09:55.799Z,14.90
2023-05-17T22:14:59.623Z,14.80
2023-05-17T22:20:05.455Z,14.80
2023-05-17T22:25:10.262Z,14.60
